Time;durP1;ratioP1;P1;durP2;ratioP2;P2;SDS_P1;SDS_P2;PMS_P1;PMS_P2;Temp;Humidity;BMP_temperature;BMP_pressure;BME280_temperature;BME280_humidity;BME280_pressure;Samples;Min_cycle;Max_cycle;Signal;HPM_P1;HPM_P2
2023/11/22 00:01:22;;;;;;;35.50;21.90;;;;;;;0.46;75.39;99432.89;107091;1256;60952;-38
2023/11/22 00:03:50;;;;;;;44.60;28.60;;;;;;;0.45;75.59;99436.10;107149;1256;73962;-38
2023/11/22 00:06:20;;;;;;;47.50;28.80;;;;;;;0.40;75.44;99431.64;107238;1257;67656;-38
2023/11/22 00:08:48;;;;;;;44.50;27.50;;;;;;;0.36;75.44;99427.02;107082;1262;71412;-38
2023/11/22 00:11:15;;;;;;;48.90;27.90;;;;;;;0.29;75.48;99415.18;107126;1257;60444;-38
2023/11/22 00:13:43;;;;;;;45.90;28.00;;;;;;;0.41;75.51;99428.34;107280;1261;60421;-38
2023/11/22 00:16:10;;;;;;;46.10;28.30;;;;;;;0.41;75.56;99429.45;107290;1257;72566;-38
2023/11/22 00:18:38;;;;;;;47.40;29.70;;;;;;;0.38;75.79;99427.86;107200;1257;66371;-38
2023/11/22 00:21:06;;;;;;;50.90;29.60;;;;;;;0.38;75.66;99426.63;107203;1257;72452;-38
2023/11/22 00:23:33;;;;;;;47.50;29.60;;;;;;;0.36;75.67;99426.05;107199;1257;61069;-38
2023/11/22 00:26:01;;;;;;;43.40;28.00;;;;;;;0.35;75.66;99422.23;107215;1257;60485;-38
2023/11/22 00:28:29;;;;;;;46.50;29.20;;;;;;;0.39;75.41;99420.23;107245;1257;73845;-38
2023/11/22 00:30:56;;;;;;;44.00;28.60;;;;;;;0.36;75.46;99419.92;107054;1257;66764;-39
2023/11/22 00:33:25;;;;;;;49.00;29.90;;;;;;;0.27;75.58;99418.45;107205;1260;71470;-38
2023/11/22 00:35:57;;;;;;;51.10;29.80;;;;;;;0.22;75.94;99421.53;107172;1261;60411;-38
2023/11/22 00:38:24;;;;;;;48.10;30.60;;;;;;;0.18;76.28;99422.23;107056;1263;60005;-38
2023/11/22 00:40:52;;;;;;;47.20;28.90;;;;;;;0.22;76.07;99425.90;105668;1257;1003635;-38
2023/11/22 00:43:20;;;;;;;47.80;28.00;;;;;;;0.27;76.11;99423.12;107265;1258;66555;-38
2023/11/22 00:45:48;;;;;;;45.50;29.20;;;;;;;0.26;76.29;99418.96;107221;1263;71465;-38
2023/11/22 00:48:15;;;;;;;49.80;30.30;;;;;;;0.25;76.40;99419.88;107207;1257;59680;-38
2023/11/22 00:50:43;;;;;;;47.10;31.50;;;;;;;0.23;76.24;99419.65;105479;1257;1003758;-38
2023/11/22 00:53:10;;;;;;;47.30;29.70;;;;;;;0.20;76.57;99417.68;107018;1257;73846;-38
2023/11/22 00:55:38;;;;;;;47.70;29.90;;;;;;;0.25;76.59;99413.48;107147;1257;66415;-38
2023/11/22 00:58:05;;;;;;;46.90;28.40;;;;;;;0.30;76.45;99412.13;107184;1260;71393;-38
2023/11/22 01:00:33;;;;;;;48.50;29.50;;;;;;;0.27;76.46;99409.61;107022;1260;60438;-38
2023/11/22 01:03:00;;;;;;;45.80;28.70;;;;;;;0.23;76.33;99411.77;107215;1262;60354;-38
2023/11/22 01:05:29;;;;;;;52.90;31.20;;;;;;;0.20;76.70;99419.67;107198;1257;73802;-38
2023/11/22 01:07:56;;;;;;;50.60;29.70;;;;;;;0.20;76.83;99414.04;107239;1257;67567;-38
2023/11/22 01:10:24;;;;;;;46.00;28.50;;;;;;;0.24;76.58;99417.17;107258;1257;72471;-38
2023/11/22 01:12:53;;;;;;;45.30;28.20;;;;;;;0.30;76.78;99414.73;107282;1261;60279;-38
2023/11/22 01:15:21;;;;;;;46.80;29.80;;;;;;;0.33;76.64;99415.30;107247;1257;61006;-38
2023/11/22 01:17:49;;;;;;;48.60;29.50;;;;;;;0.34;76.85;99416.87;107205;1261;73821;-39
2023/11/22 01:20:16;;;;;;;48.80;29.60;;;;;;;0.36;76.73;99417.68;107265;1257;67573;-38
2023/11/22 01:22:44;;;;;;;50.30;29.00;;;;;;;0.32;76.64;99414.92;107246;1258;72667;-38
2023/11/22 01:25:12;;;;;;;43.70;27.80;;;;;;;0.32;76.58;99417.00;107215;1263;60559;-38
2023/11/22 01:27:40;;;;;;;45.00;27.40;;;;;;;0.33;76.53;99410.02;107260;1257;60421;-38
2023/11/22 01:30:08;;;;;;;42.80;28.10;;;;;;;0.45;76.15;99425.11;107201;1262;73829;-38
2023/11/22 01:32:35;;;;;;;44.80;29.30;;;;;;;0.43;76.00;99431.23;107249;1256;66677;-38
2023/11/22 01:35:05;;;;;;;48.40;28.50;;;;;;;0.40;76.05;99430.05;107230;1257;72674;-38
2023/11/22 01:37:33;;;;;;;46.00;29.90;;;;;;;0.37;76.01;99435.17;107348;1256;60414;-38
2023/11/22 01:40:03;;;;;;;45.70;28.60;;;;;;;0.35;76.11;99434.38;107254;1261;60325;-38
2023/11/22 01:42:30;;;;;;;31.90;20.90;;;;;;;0.37;76.05;99434.58;107227;1257;73885;-38
2023/11/22 01:44:58;;;;;;;47.00;26.80;;;;;;;0.43;75.83;99430.76;107253;1258;68119;-39
2023/11/22 01:47:27;;;;;;;43.50;28.20;;;;;;;0.37;75.80;99421.30;107284;1258;72691;-38
2023/11/22 01:49:54;;;;;;;48.80;29.10;;;;;;;0.43;75.79;99433.90;107264;1257;60383;-38
2023/11/22 01:52:22;;;;;;;43.80;27.90;;;;;;;0.40;75.73;99440.33;107279;1261;60447;-38
2023/11/22 01:54:49;;;;;;;46.10;28.20;;;;;;;0.36;75.90;99443.23;107244;1257;73879;-38
2023/11/22 01:57:17;;;;;;;43.70;27.70;;;;;;;0.32;76.01;99445.48;107249;1258;67555;-38
2023/11/22 01:59:47;;;;;;;43.80;27.60;;;;;;;0.36;76.14;99449.21;107352;1254;72468;-38
2023/11/22 02:02:15;;;;;;;41.10;26.20;;;;;;;0.44;75.99;99452.55;107371;1257;60642;-38
2023/11/22 02:04:43;;;;;;;44.70;28.00;;;;;;;0.45;76.01;99450.73;107590;1255;60322;-38
2023/11/22 02:07:11;;;;;;;42.30;27.10;;;;;;;0.46;76.22;99453.06;107565;1260;73783;-39
2023/11/22 02:09:38;;;;;;;42.70;26.70;;;;;;;0.46;76.27;99454.18;107409;1253;67892;-39
2023/11/22 02:12:07;;;;;;;44.70;27.60;;;;;;;0.43;76.09;99454.74;107412;1254;72663;-38
2023/11/22 02:14:34;;;;;;;44.70;25.50;;;;;;;0.38;75.88;99454.46;107577;1254;61000;-39
2023/11/22 02:17:02;;;;;;;43.00;26.60;;;;;;;0.38;75.92;99449.48;107491;1254;60302;-39
2023/11/22 02:19:30;;;;;;;38.90;24.20;;;;;;;0.42;75.83;99445.86;107620;1254;74192;-39
2023/11/22 02:21:59;;;;;;;41.70;25.50;;;;;;;0.43;76.08;99449.67;107552;1255;66757;-39
2023/11/22 02:24:26;;;;;;;39.40;24.90;;;;;;;0.43;76.11;99443.66;107631;1253;72533;-39
2023/11/22 02:29:51;;;;;;;39.80;25.90;;;;;;;0.41;75.99;99442.73;104098;1292;601140;-38
2023/11/22 02:32:18;;;;;;;37.90;24.00;;;;;;;0.38;75.94;99444.98;106434;1269;60874;-38
2023/11/22 02:34:46;;;;;;;39.20;24.10;;;;;;;0.40;75.70;99439.33;106499;1272;60476;-38
2023/11/22 02:37:13;;;;;;;38.70;23.40;;;;;;;0.45;75.59;99439.00;106528;1272;72323;-38
2023/11/22 02:39:48;;;;;;;39.20;25.70;;;;;;;0.43;75.53;99439.44;106494;1274;67916;-38
2023/11/22 02:42:15;;;;;;;39.20;25.20;;;;;;;0.39;75.87;99441.20;106511;1275;71558;-38
2023/11/22 02:44:43;;;;;;;37.10;24.50;;;;;;;0.39;76.16;99446.02;106615;1271;59750;-38
2023/11/22 02:47:10;;;;;;;39.20;25.50;;;;;;;0.39;76.17;99445.30;106748;1267;60030;-38
2023/11/22 02:49:39;;;;;;;34.80;22.40;;;;;;;0.36;76.06;99442.00;106750;1269;71943;-39
2023/11/22 02:52:06;;;;;;;34.70;21.70;;;;;;;0.39;75.72;99449.36;106750;1268;67558;-38
2023/11/22 02:54:34;;;;;;;34.10;22.00;;;;;;;0.44;75.49;99449.56;106782;1269;72717;-38
2023/11/22 02:57:01;;;;;;;34.80;23.10;;;;;;;0.47;76.03;99446.00;106776;1266;59935;-38
2023/11/22 02:59:29;;;;;;;35.20;22.80;;;;;;;0.48;75.87;99443.17;106755;1267;59700;-38
2023/11/22 03:01:57;;;;;;;35.70;22.70;;;;;;;0.43;75.70;99441.73;106711;1266;71761;-38
2023/11/22 03:04:24;;;;;;;35.00;22.20;;;;;;;0.40;76.01;99438.79;106731;1265;67593;-38
2023/11/22 03:06:52;;;;;;;34.00;20.70;;;;;;;0.39;75.98;99441.52;106722;1267;71471;-39
2023/11/22 03:09:19;;;;;;;34.30;20.90;;;;;;;0.42;75.76;99447.30;106681;1267;60922;-40
2023/11/22 03:11:47;;;;;;;31.30;21.40;;;;;;;0.49;75.57;99449.60;106726;1269;59398;-40
2023/11/22 03:14:15;;;;;;;30.80;20.90;;;;;;;0.51;75.37;99447.71;106756;1270;73063;-40
2023/11/22 03:16:43;;;;;;;31.60;20.30;;;;;;;0.50;75.73;99454.38;106758;1269;66289;-40
2023/11/22 03:19:13;;;;;;;32.80;20.90;;;;;;;0.48;75.31;99459.80;106714;1270;71871;-37
2023/11/22 03:21:41;;;;;;;31.80;21.90;;;;;;;0.45;75.41;99459.41;106759;1271;59726;-37
2023/11/22 03:24:09;;;;;;;35.90;22.20;;;;;;;0.44;75.37;99461.94;106649;1267;59604;-38
2023/11/22 03:26:37;;;;;;;29.60;20.60;;;;;;;0.40;75.39;99464.40;106628;1271;73106;-38
2023/11/22 03:29:04;;;;;;;29.60;19.30;;;;;;;0.44;75.30;99463.05;106540;1267;66471;-38
2023/11/22 03:31:33;;;;;;;32.80;20.50;;;;;;;0.50;75.05;99464.20;106600;1267;71371;-38
2023/11/22 03:34:04;;;;;;;30.60;19.90;;;;;;;0.51;75.08;99467.06;106627;1267;59550;-38
2023/11/22 03:36:32;;;;;;;32.20;20.70;;;;;;;0.50;75.28;99469.37;106607;1267;60224;-38
2023/11/22 03:39:00;;;;;;;31.00;20.30;;;;;;;0.50;75.53;99470.06;106635;1267;73097;-38
2023/11/22 03:41:27;;;;;;;29.60;19.90;;;;;;;0.50;75.47;99474.27;106718;1270;68052;-38
2023/11/22 03:43:55;;;;;;;31.30;20.30;;;;;;;0.49;75.49;99473.91;106711;1267;72655;-38
2023/11/22 03:46:22;;;;;;;32.80;19.50;;;;;;;0.48;75.30;99473.41;106713;1267;59675;-38
2023/11/22 03:48:50;;;;;;;29.60;19.50;;;;;;;0.49;74.94;99471.40;106679;1267;60142;-38
2023/11/22 03:51:17;;;;;;;26.90;18.60;;;;;;;0.51;74.83;99476.66;106669;1267;73149;-39
2023/11/22 03:53:45;;;;;;;30.00;19.40;;;;;;;0.50;75.04;99478.65;106620;1267;66767;-39
2023/11/22 03:56:12;;;;;;;30.00;19.70;;;;;;;0.49;75.55;99481.28;106621;1271;72683;-39
2023/11/22 03:58:40;;;;;;;29.60;19.80;;;;;;;0.48;75.46;99481.08;106634;1267;59820;-39
2023/11/22 04:01:07;;;;;;;30.40;20.30;;;;;;;0.47;75.23;99487.94;106631;1267;59419;-39
2023/11/22 04:03:35;;;;;;;30.00;19.10;;;;;;;0.42;75.15;99488.01;106610;1270;73057;-39
2023/11/22 04:06:03;;;;;;;28.60;19.00;;;;;;;0.38;75.22;99488.38;106689;1267;67658;-39
2023/11/22 04:08:31;;;;;;;28.10;18.30;;;;;;;0.42;75.28;99487.93;106759;1267;71397;-39
2023/11/22 04:10:59;;;;;;;27.90;19.20;;;;;;;0.45;75.23;99487.21;106705;1267;59515;-39
2023/11/22 04:13:26;;;;;;;27.20;18.80;;;;;;;0.42;75.47;99483.20;106747;1266;60028;-39
2023/11/22 04:15:54;;;;;;;27.70;19.10;;;;;;;0.40;75.48;99488.45;106729;1267;73004;-37
2023/11/22 04:18:22;;;;;;;30.50;19.70;;;;;;;0.40;75.64;99494.53;107028;1258;67590;-38
2023/11/22 04:20:51;;;;;;;28.90;19.00;;;;;;;0.41;75.82;99499.86;106981;1260;71486;-38
2023/11/22 04:23:18;;;;;;;28.90;18.40;;;;;;;0.44;75.77;99496.34;107030;1262;60900;-38
2023/11/22 04:25:46;;;;;;;30.70;18.60;;;;;;;0.47;75.26;99497.48;107024;1257;59540;-38
2023/11/22 04:28:14;;;;;;;28.70;18.50;;;;;;;0.53;74.97;99499.73;107020;1262;73089;-38
2023/11/22 04:30:42;;;;;;;24.20;17.20;;;;;;;0.56;75.01;99499.85;107063;1257;66269;-38
2023/11/22 04:33:09;;;;;;;30.10;18.40;;;;;;;0.58;75.17;99498.91;107066;1263;72674;-38
2023/11/22 04:35:38;;;;;;;27.70;18.30;;;;;;;0.59;75.15;99500.59;107047;1263;59641;-38
2023/11/22 04:38:06;;;;;;;29.50;18.20;;;;;;;0.59;74.74;99502.89;107071;1258;60028;-38
2023/11/22 04:40:33;;;;;;;27.30;18.30;;;;;;;0.56;74.91;99503.21;107078;1257;73077;-38
2023/11/22 04:43:02;;;;;;;28.50;18.90;;;;;;;0.54;74.86;99510.92;107050;1257;66769;-38
2023/11/22 04:45:29;;;;;;;27.70;17.10;;;;;;;0.53;74.88;99514.78;107050;1261;72779;-38
2023/11/22 04:47:59;;;;;;;24.80;17.50;;;;;;;0.59;75.05;99517.67;106976;1258;59630;-39
2023/11/22 04:50:27;;;;;;;27.00;17.80;;;;;;;0.65;74.52;99520.73;106996;1257;59593;-38
2023/11/22 04:52:55;;;;;;;24.30;17.70;;;;;;;0.62;74.72;99518.77;107060;1257;72762;-38
2023/11/22 04:55:25;;;;;;;26.30;17.50;;;;;;;0.59;74.89;99518.58;107069;1258;66760;-38
2023/11/22 04:57:53;;;;;;;26.00;17.70;;;;;;;0.57;74.68;99517.61;107047;1258;72719;-38
2023/11/22 05:00:24;;;;;;;26.80;18.40;;;;;;;0.55;74.78;99511.38;107100;1260;59666;-38
2023/11/22 05:02:52;;;;;;;25.60;17.10;;;;;;;0.52;74.92;99515.77;107116;1258;60029;-38
2023/11/22 05:05:20;;;;;;;26.80;17.50;;;;;;;0.49;74.83;99515.64;107085;1263;71822;-39
2023/11/22 05:07:48;;;;;;;25.90;16.50;;;;;;;0.48;74.44;99518.48;107069;1257;67007;-39
2023/11/22 05:10:17;;;;;;;25.50;16.80;;;;;;;0.50;74.59;99522.88;106987;1257;72722;-39
2023/11/22 05:12:44;;;;;;;25.30;16.90;;;;;;;0.48;74.51;99526.05;107031;1257;59574;-39
2023/11/22 05:15:14;;;;;;;25.90;18.10;;;;;;;0.45;74.64;99528.70;106994;1257;59201;-38
2023/11/22 05:17:41;;;;;;;22.30;14.30;;;;;;;0.45;75.02;99525.41;107055;1257;73202;-38
2023/11/22 05:20:09;;;;;;;27.90;17.90;;;;;;;0.44;75.08;99532.61;107006;1257;66609;-38
2023/11/22 05:22:37;;;;;;;28.80;18.60;;;;;;;0.41;75.10;99542.04;107063;1257;71456;-38
2023/11/22 05:25:06;;;;;;;31.10;19.10;;;;;;;0.40;75.09;99550.16;107062;1257;59629;-38
2023/11/22 05:27:34;;;;;;;26.20;18.40;;;;;;;0.45;75.03;99556.56;107113;1257;59422;-38
2023/11/22 05:30:02;;;;;;;29.40;18.60;;;;;;;0.51;74.60;99560.42;107092;1257;71782;-38
2023/11/22 05:32:31;;;;;;;26.90;18.30;;;;;;;0.53;75.11;99562.64;107080;1257;67152;-39
2023/11/22 05:34:58;;;;;;;27.00;18.10;;;;;;;0.54;74.93;99573.55;107058;1260;72533;-38
2023/11/22 05:37:26;;;;;;;30.10;18.70;;;;;;;0.53;74.81;99575.02;107049;1261;59790;-39
2023/11/22 05:39:55;;;;;;;28.10;18.60;;;;;;;0.52;74.89;99581.16;107076;1257;60009;-38
2023/11/22 05:42:22;;;;;;;30.60;20.50;;;;;;;0.53;74.90;99581.59;107043;1257;73065;-38
2023/11/22 05:44:50;;;;;;;29.10;19.30;;;;;;;0.51;74.78;99582.14;107057;1261;67537;-38
2023/11/22 05:47:18;;;;;;;30.80;19.10;;;;;;;0.55;74.72;99587.52;106996;1263;72666;-38
2023/11/22 05:49:46;;;;;;;29.40;19.30;;;;;;;0.61;74.58;99586.85;107075;1257;59490;-38
2023/11/22 05:52:13;;;;;;;28.40;19.60;;;;;;;0.60;74.37;99586.16;107066;1257;59651;-38
2023/11/22 05:54:41;;;;;;;29.90;20.50;;;;;;;0.62;74.56;99593.30;107065;1258;71852;-38
2023/11/22 05:57:09;;;;;;;33.10;20.10;;;;;;;0.61;74.56;99592.94;107033;1257;67558;-38
2023/11/22 05:59:36;;;;;;;30.80;20.60;;;;;;;0.61;74.48;99593.95;107097;1260;71805;-38
2023/11/22 06:02:04;;;;;;;31.90;20.40;;;;;;;0.59;74.46;99590.50;107077;1257;59611;-39
2023/11/22 06:04:31;;;;;;;32.40;20.10;;;;;;;0.52;74.29;99593.43;107061;1257;59644;-39
2023/11/22 06:06:59;;;;;;;30.20;19.30;;;;;;;0.53;74.40;99597.69;107017;1257;71804;-38
2023/11/22 06:09:27;;;;;;;27.80;19.00;;;;;;;0.61;74.35;99605.64;107009;1257;67550;-38
2023/11/22 06:11:54;;;;;;;30.60;19.70;;;;;;;0.61;74.23;99612.30;107012;1262;72404;-38
2023/11/22 06:14:22;;;;;;;31.30;20.10;;;;;;;0.64;74.67;99615.84;107024;1257;59529;-38
2023/11/22 06:16:49;;;;;;;27.90;19.10;;;;;;;0.70;74.79;99616.56;107055;1257;59377;-38
2023/11/22 06:19:17;;;;;;;24.30;17.30;;;;;;;0.73;74.69;99622.10;106997;1257;71851;-38
2023/11/22 06:21:45;;;;;;;32.40;16.70;;;;;;;0.73;74.38;99618.38;107030;1257;67559;-38
2023/11/22 06:24:15;;;;;;;21.10;14.60;;;;;;;0.71;74.02;99622.42;107006;1262;72714;-38
2023/11/22 06:26:45;;;;;;;18.60;12.20;;;;;;;0.71;73.57;99627.09;107090;1258;59584;-38
2023/11/22 06:29:14;;;;;;;16.80;12.40;;;;;;;0.73;73.09;99626.85;107047;1257;59654;-38
2023/11/22 06:31:43;;;;;;;15.60;11.60;;;;;;;0.67;72.69;99632.02;107102;1258;73070;-38
2023/11/22 06:34:10;;;;;;;15.50;11.10;;;;;;;0.55;72.63;99628.02;107094;1257;66433;-38
2023/11/22 06:36:38;;;;;;;15.70;11.30;;;;;;;0.50;72.87;99630.58;107068;1263;72687;-39
2023/11/22 06:39:06;;;;;;;15.70;11.70;;;;;;;0.48;72.84;99631.26;107091;1257;60272;-38
2023/11/22 06:41:34;;;;;;;15.50;11.40;;;;;;;0.41;72.74;99637.36;107089;1257;60527;-38
2023/11/22 06:44:03;;;;;;;15.40;10.90;;;;;;;0.34;72.96;99639.20;107055;1257;73893;-38
2023/11/22 06:46:31;;;;;;;12.60;9.80;;;;;;;0.28;72.75;99645.05;107082;1257;66700;-38
2023/11/22 06:48:58;;;;;;;13.40;9.60;;;;;;;0.25;72.58;99637.22;107056;1257;72509;-38
2023/11/22 06:51:26;;;;;;;13.40;10.20;;;;;;;0.26;72.87;99638.71;107063;1257;60859;-38
2023/11/22 06:53:54;;;;;;;13.80;10.00;;;;;;;0.25;72.87;99641.11;107091;1257;60320;-38
2023/11/22 06:56:25;;;;;;;13.40;9.50;;;;;;;0.22;72.94;99646.27;107144;1257;73752;-38
2023/11/22 06:58:53;;;;;;;14.50;10.10;;;;;;;0.22;73.18;99651.19;107131;1257;66331;-38
2023/11/22 07:01:26;;;;;;;12.60;9.30;;;;;;;0.24;73.30;99656.48;107091;1257;74739;-38
2023/11/22 07:03:54;;;;;;;13.40;9.10;;;;;;;0.26;72.73;99662.81;107062;1260;60563;-38
2023/11/22 07:06:22;;;;;;;14.20;9.30;;;;;;;0.20;72.50;99672.34;107083;1257;60883;-38
2023/11/22 07:08:50;;;;;;;10.50;8.30;;;;;;;0.14;72.49;99677.44;107202;1257;73787;-38
2023/11/22 07:11:24;;;;;;;10.30;7.60;;;;;;;0.16;72.49;99682.07;107076;1258;68006;-38
2023/11/22 07:13:52;;;;;;;9.70;7.00;;;;;;;0.21;72.20;99683.92;107105;1257;71425;-39
2023/11/22 07:16:20;;;;;;;11.10;7.40;;;;;;;0.19;72.19;99683.48;103303;1257;1003090;-38
2023/11/22 07:18:48;;;;;;;9.50;7.40;;;;;;;0.15;71.84;99690.55;107024;1257;60839;-39
2023/11/22 07:21:16;;;;;;;10.20;7.70;;;;;;;0.12;71.98;99692.36;107046;1257;73749;-38
2023/11/22 07:23:45;;;;;;;12.00;7.60;;;;;;;0.07;72.07;99694.80;107112;1258;67862;-38
2023/11/22 07:26:16;;;;;;;10.90;7.90;;;;;;;0.04;72.06;99697.02;107126;1257;71243;-38
2023/11/22 07:28:44;;;;;;;9.80;7.60;;;;;;;0.01;72.09;99698.42;107083;1261;60476;-38
2023/11/22 07:31:14;;;;;;;9.50;7.30;;;;;;;-0.03;72.22;99695.80;107211;1257;60308;-38
2023/11/22 07:33:41;;;;;;;7.50;5.80;;;;;;;-0.03;71.90;99689.98;107036;1257;73768;-38
2023/11/22 07:36:09;;;;;;;7.70;6.10;;;;;;;-0.00;71.62;99688.31;107097;1257;68060;-38
2023/11/22 07:38:37;;;;;;;9.50;6.90;;;;;;;-0.04;71.84;99687.17;107094;1260;71688;-38
2023/11/22 07:41:07;;;;;;;9.50;6.80;;;;;;;-0.06;72.08;99689.82;107037;1258;60359;-38
2023/11/22 07:43:36;;;;;;;9.50;6.70;;;;;;;-0.05;72.03;99692.36;106967;1257;60029;-38
2023/11/22 07:46:12;;;;;;;8.50;6.80;;;;;;;-0.05;71.96;99691.95;107111;1258;73896;-38
2023/11/22 07:48:46;;;;;;;11.30;7.20;;;;;;;-0.07;72.02;99694.35;107118;1257;67538;-38
2023/11/22 07:51:18;;;;;;;7.60;6.20;;;;;;;-0.10;71.81;99703.12;106394;1257;1002640;-38
2023/11/22 07:53:45;;;;;;;9.40;6.10;;;;;;;-0.16;71.80;99705.68;107074;1260;60837;-38
2023/11/22 07:56:13;;;;;;;8.30;6.00;;;;;;;-0.13;71.70;99704.80;107085;1262;59633;-38
2023/11/22 07:58:42;;;;;;;7.70;5.80;;;;;;;-0.11;71.23;99702.98;107136;1257;73883;-38
2023/11/22 08:01:13;;;;;;;7.50;5.90;;;;;;;-0.19;71.02;99706.40;107099;1257;66334;-38
2023/11/22 08:03:45;;;;;;;8.80;6.50;;;;;;;-0.27;71.58;99708.86;107038;1257;73190;-38
2023/11/22 08:06:16;;;;;;;9.60;6.30;;;;;;;-0.27;71.62;99714.45;107049;1262;60739;-38
2023/11/22 08:08:45;;;;;;;8.70;6.50;;;;;;;-0.28;71.75;99724.96;107122;1258;60300;-38
2023/11/22 08:11:20;;;;;;;;;;;;;;;-0.29;71.78;99724.70;107115;1262;73902;-38
2023/11/22 08:13:48;;;;;;;8.70;6.30;;;;;;;-0.28;71.98;99724.20;107161;1257;66308;-38
2023/11/22 08:16:16;;;;;;;8.90;6.20;;;;;;;-0.30;71.85;99726.54;107024;1257;72462;-38
2023/11/22 08:18:44;;;;;;;8.10;6.00;;;;;;;-0.28;71.48;99728.64;107075;1257;61022;-38
2023/11/22 08:21:11;;;;;;;8.90;6.50;;;;;;;-0.24;71.45;99728.71;107080;1257;60702;-38
2023/11/22 08:23:39;;;;;;;9.80;6.80;;;;;;;-0.24;71.38;99731.43;107119;1257;73858;-38
2023/11/22 08:26:08;;;;;;;9.40;7.00;;;;;;;-0.25;71.76;99738.59;107091;1257;66283;-38
2023/11/22 08:28:36;;;;;;;9.40;6.70;;;;;;;-0.22;71.76;99736.86;107060;1260;70518;-38
2023/11/22 08:31:09;;;;;;;10.50;6.50;;;;;;;-0.17;71.78;99740.33;107086;1257;60383;-38
2023/11/22 08:33:37;;;;;;;8.00;6.60;;;;;;;-0.15;71.61;99735.27;106194;1260;1002956;-38
2023/11/22 08:36:09;;;;;;;9.80;6.90;;;;;;;-0.13;71.36;99738.85;107060;1262;74168;-38
2023/11/22 08:38:36;;;;;;;8.40;6.50;;;;;;;-0.14;71.12;99737.47;106897;1260;67748;-38
2023/11/22 08:41:08;;;;;;;11.30;6.40;;;;;;;-0.12;71.13;99745.30;104768;1260;1015676;-39
2023/11/22 08:43:35;;;;;;;9.00;6.10;;;;;;;-0.04;71.14;99747.30;107043;1259;60530;-39
2023/11/22 08:46:06;;;;;;;8.90;6.00;;;;;;;0.02;71.04;99748.21;107039;1260;60453;-39
2023/11/22 08:48:41;;;;;;;9.40;6.50;;;;;;;0.04;70.97;99746.33;107145;1259;74139;-39
2023/11/22 08:51:11;;;;;;;9.10;5.40;;;;;;;0.03;71.00;99742.02;107026;1259;66309;-39
2023/11/22 08:53:39;;;;;;;9.20;6.80;;;;;;;0.03;70.85;99737.77;107032;1260;72485;-39
2023/11/22 08:56:08;;;;;;;9.20;6.70;;;;;;;-0.03;70.53;99741.00;107481;1256;61055;-39
2023/11/22 08:58:38;;;;;;;9.80;6.60;;;;;;;-0.07;70.99;99746.64;107316;1256;60360;-39
2023/11/22 09:01:07;;;;;;;10.70;6.40;;;;;;;-0.07;71.01;99750.73;107295;1256;73825;-39
2023/11/22 09:03:35;;;;;;;9.20;6.70;;;;;;;-0.05;71.05;99752.80;107314;1256;67947;-39
2023/11/22 09:06:03;;;;;;;8.40;6.50;;;;;;;-0.01;70.67;99752.30;107141;1260;72726;-39
2023/11/22 09:08:30;;;;;;;8.80;5.80;;;;;;;0.04;70.33;99750.80;107053;1256;60533;-39
2023/11/22 09:10:59;;;;;;;8.30;5.80;;;;;;;0.03;69.99;99753.11;107081;1256;59333;-39
2023/11/22 09:13:27;;;;;;;6.90;5.30;;;;;;;-0.01;70.06;99759.22;107127;1260;72596;-39
2023/11/22 09:15:54;;;;;;;7.70;5.30;;;;;;;-0.07;69.88;99765.02;107199;1256;67385;-39
2023/11/22 09:18:22;;;;;;;7.70;5.90;;;;;;;-0.10;70.10;99766.02;107217;1256;70974;-39
2023/11/22 09:20:50;;;;;;;9.70;6.70;;;;;;;-0.13;70.08;99767.52;107107;1257;60572;-39
2023/11/22 09:23:18;;;;;;;8.50;6.50;;;;;;;-0.16;69.90;99772.52;107183;1256;60054;-39
2023/11/22 09:25:46;;;;;;;8.20;5.60;;;;;;;-0.24;70.10;99769.95;107257;1256;72674;-39
2023/11/22 09:28:15;;;;;;;7.90;5.80;;;;;;;-0.32;69.90;99770.02;107251;1260;68066;-39
2023/11/22 09:30:45;;;;;;;8.30;5.50;;;;;;;-0.35;69.91;99774.56;107271;1256;72802;-39
2023/11/22 09:33:17;;;;;;;6.10;4.40;;;;;;;-0.29;70.11;99777.14;107257;1257;60451;-39
2023/11/22 09:35:46;;;;;;;7.60;5.90;;;;;;;-0.27;70.02;99774.19;107264;1256;60294;-39
2023/11/22 09:38:15;;;;;;;8.00;6.20;;;;;;;-0.27;70.21;99770.09;107268;1256;75050;-39
2023/11/22 09:40:45;;;;;;;9.70;7.40;;;;;;;-0.31;70.04;99775.45;107210;1258;66449;-39
2023/11/22 09:43:17;;;;;;;9.70;6.50;;;;;;;-0.35;70.39;99771.96;107255;1256;71518;-39
2023/11/22 09:45:50;;;;;;;9.00;6.70;;;;;;;-0.37;70.19;99768.14;107255;1256;60687;-39
2023/11/22 09:48:24;;;;;;;8.00;6.40;;;;;;;-0.39;70.27;99772.31;107229;1256;59841;-39
2023/11/22 09:51:09;;;;;;;;;;;;;;;-0.45;69.62;99774.48;107379;1256;74055;-39
2023/11/22 09:53:48;;;;;;;9.80;6.00;;;;;;;-0.55;69.80;99772.52;107247;1256;67911;-39
2023/11/22 09:56:15;;;;;;;9.20;6.30;;;;;;;-0.62;70.09;99776.44;107204;1257;73111;-39
2023/11/22 09:58:43;;;;;;;7.90;6.20;;;;;;;-0.59;69.84;99780.20;107271;1255;60310;-38
2023/11/22 10:01:13;;;;;;;8.50;6.20;;;;;;;-0.53;69.98;99777.51;106503;1256;1003634;-38
2023/11/22 10:03:41;;;;;;;8.20;5.70;;;;;;;-0.52;69.78;99781.38;107305;1256;73923;-38
2023/11/22 10:06:09;;;;;;;9.50;6.20;;;;;;;-0.53;69.85;99785.16;107209;1257;68185;-38
2023/11/22 10:08:38;;;;;;;8.60;6.80;;;;;;;-0.52;69.86;99784.90;107091;1257;71448;-39
2023/11/22 10:11:06;;;;;;;9.70;6.40;;;;;;;-0.49;69.79;99783.03;107105;1257;61570;-38
2023/11/22 10:13:34;;;;;;;11.50;6.40;;;;;;;-0.51;69.43;99784.04;107151;1256;60313;-38
2023/11/22 10:16:28;;;;;;;8.80;6.50;;;;;;;-0.55;69.32;99786.48;107196;1255;73920;-38
2023/11/22 10:18:56;;;;;;;9.70;5.70;;;;;;;-0.60;69.27;99797.69;107290;1257;67885;-38
2023/11/22 10:21:28;;;;;;;9.30;6.20;;;;;;;-0.63;69.04;99799.66;107093;1262;72872;-38
2023/11/22 10:23:57;;;;;;;9.10;6.50;;;;;;;-0.71;68.78;99808.13;107127;1255;60485;-38
2023/11/22 10:26:25;;;;;;;8.50;5.60;;;;;;;-0.77;68.78;99803.30;107107;1256;60438;-38
2023/11/22 10:28:53;;;;;;;9.00;5.70;;;;;;;-0.76;68.95;99812.73;107136;1256;73797;-38
2023/11/22 10:31:22;;;;;;;10.30;6.60;;;;;;;-0.79;68.88;99814.08;107225;1256;66049;-39
2023/11/22 10:33:50;;;;;;;10.10;6.50;;;;;;;-0.90;69.21;99801.09;107317;1256;72759;-39
2023/11/22 10:36:20;;;;;;;10.90;6.60;;;;;;;-0.82;69.51;99809.73;107238;1255;60424;-39
2023/11/22 10:38:48;;;;;;;8.80;6.30;;;;;;;-0.79;69.64;99809.34;107363;1256;60577;-39
2023/11/22 10:41:17;;;;;;;11.90;6.80;;;;;;;-0.76;69.65;99808.09;107207;1256;72116;-39
2023/11/22 10:43:44;;;;;;;9.00;6.10;;;;;;;-0.78;69.34;99813.06;106501;1256;1003182;-39
2023/11/22 10:46:13;;;;;;;9.60;6.20;;;;;;;-0.82;69.23;99813.17;107343;1256;71466;-39
2023/11/22 10:48:41;;;;;;;12.00;7.00;;;;;;;-0.86;69.35;99810.48;107264;1260;59703;-39
2023/11/22 10:51:11;;;;;;;9.20;6.40;;;;;;;-0.85;69.56;99811.13;107218;1257;60390;-39
2023/11/22 10:53:46;;;;;;;13.40;6.50;;;;;;;-0.76;69.25;99811.82;107408;1255;73527;-39
2023/11/22 10:56:19;;;;;;;11.40;6.80;;;;;;;-0.70;68.87;99814.30;107218;1257;67839;-38
2023/11/22 10:58:50;;;;;;;13.70;6.80;;;;;;;-0.70;69.03;99818.52;107149;1256;71745;-38
2023/11/22 11:01:21;;;;;;;9.90;6.60;;;;;;;-0.70;69.01;99817.33;107133;1256;60470;-38
2023/11/22 11:04:00;;;;;;;11.20;6.90;;;;;;;-0.65;69.24;99821.52;107231;1255;61045;-38
2023/11/22 11:06:33;;;;;;;12.30;6.30;;;;;;;-0.62;69.10;99823.30;107133;1256;72574;-38
2023/11/22 11:09:05;;;;;;;11.00;6.90;;;;;;;-0.62;69.12;99822.60;107218;1257;66294;-38
2023/11/22 11:11:33;;;;;;;9.50;6.50;;;;;;;-0.60;68.94;99818.19;107249;1256;72775;-38
2023/11/22 11:14:05;;;;;;;8.90;6.20;;;;;;;-0.60;68.47;99812.96;107258;1257;60312;-38
2023/11/22 11:16:37;;;;;;;9.20;6.40;;;;;;;-0.65;68.38;99808.09;107300;1256;60604;-38
2023/11/22 11:19:07;;;;;;;10.30;6.30;;;;;;;-0.64;68.51;99810.65;107212;1256;72255;-38
2023/11/22 11:21:35;;;;;;;8.00;5.80;;;;;;;-0.64;68.42;99809.05;107271;1255;69642;-38
2023/11/22 11:24:03;;;;;;;8.90;5.60;;;;;;;-0.53;68.04;99816.27;107234;1259;71197;-38
2023/11/22 11:26:37;;;;;;;9.20;5.60;;;;;;;-0.48;67.92;99817.20;107270;1256;60432;-38
2023/11/22 11:29:07;;;;;;;9.10;6.60;;;;;;;-0.45;67.79;99820.75;107295;1256;60311;-38